sensor_id;sensor_type;location;lat;lon;timestamp;pressure;altitude;pressure_sealevel;temperature
20733;BMP180;10527;52.124;5.196;2022-07-25T00:01:52;100974.00;;;35.90
20733;BMP180;10527;52.124;5.196;2022-07-25T00:04:20;100975.00;;;35.90
20733;BMP180;10527;52.124;5.196;2022-07-25T00:06:47;100967.00;;;35.90
20733;BMP180;10527;52.124;5.196;2022-07-25T00:09:14;100956.00;;;35.90
20733;BMP180;10527;52.124;5.196;2022-07-25T00:11:41;100957.00;;;35.80
20733;BMP180;10527;52.124;5.196;2022-07-25T00:14:08;100956.00;;;35.80
20733;BMP180;10527;52.124;5.196;2022-07-25T00:16:36;100951.00;;;35.80
20733;BMP180;10527;52.124;5.196;2022-07-25T00:19:03;100939.00;;;35.70
20733;BMP180;10527;52.124;5.196;2022-07-25T00:21:30;100938.00;;;35.70
20733;BMP180;10527;52.124;5.196;2022-07-25T00:23:58;100936.00;;;35.60
20733;BMP180;10527;52.124;5.196;2022-07-25T00:26:25;100927.00;;;35.60
20733;BMP180;10527;52.124;5.196;2022-07-25T00:28:54;100930.00;;;35.60
20733;BMP180;10527;52.124;5.196;2022-07-25T00:31:23;100925.00;;;35.60
20733;BMP180;10527;52.124;5.196;2022-07-25T00:33:50;100918.00;;;35.50
20733;BMP180;10527;52.124;5.196;2022-07-25T00:36:17;100917.00;;;35.50
20733;BMP180;10527;52.124;5.196;2022-07-25T00:38:44;100921.00;;;35.50
20733;BMP180;10527;52.124;5.196;2022-07-25T00:41:11;100914.00;;;35.50
20733;BMP180;10527;52.124;5.196;2022-07-25T00:43:43;100910.00;;;35.50
20733;BMP180;10527;52.124;5.196;2022-07-25T00:46:15;100905.00;;;35.40
20733;BMP180;10527;52.124;5.196;2022-07-25T00:48:45;100907.00;;;35.40
20733;BMP180;10527;52.124;5.196;2022-07-25T00:51:14;100901.00;;;35.30
20733;BMP180;10527;52.124;5.196;2022-07-25T00:53:41;100903.00;;;35.30
20733;BMP180;10527;52.124;5.196;2022-07-25T00:56:08;100899.00;;;35.30
20733;BMP180;10527;52.124;5.196;2022-07-25T00:58:35;100899.00;;;35.30
20733;BMP180;10527;52.124;5.196;2022-07-25T01:01:03;100898.00;;;35.20
20733;BMP180;10527;52.124;5.196;2022-07-25T01:03:30;100915.00;;;35.20
20733;BMP180;10527;52.124;5.196;2022-07-25T01:05:57;100919.00;;;35.10
20733;BMP180;10527;52.124;5.196;2022-07-25T01:08:24;100902.00;;;35.00
20733;BMP180;10527;52.124;5.196;2022-07-25T01:10:52;100900.00;;;34.90
20733;BMP180;10527;52.124;5.196;2022-07-25T01:13:19;100901.00;;;34.80
20733;BMP180;10527;52.124;5.196;2022-07-25T01:15:46;100901.00;;;34.80
20733;BMP180;10527;52.124;5.196;2022-07-25T01:18:13;100892.00;;;34.70
20733;BMP180;10527;52.124;5.196;2022-07-25T01:20:40;100890.00;;;34.60
20733;BMP180;10527;52.124;5.196;2022-07-25T01:23:07;100892.00;;;34.60
20733;BMP180;10527;52.124;5.196;2022-07-25T01:25:34;100890.00;;;34.60
20733;BMP180;10527;52.124;5.196;2022-07-25T01:28:01;100890.00;;;34.60
20733;BMP180;10527;52.124;5.196;2022-07-25T01:30:27;100895.00;;;34.70
20733;BMP180;10527;52.124;5.196;2022-07-25T01:32:57;100888.00;;;34.70
20733;BMP180;10527;52.124;5.196;2022-07-25T01:35:23;100886.00;;;34.70
20733;BMP180;10527;52.124;5.196;2022-07-25T01:37:50;100889.00;;;34.70
20733;BMP180;10527;52.124;5.196;2022-07-25T01:40:17;100880.00;;;34.70
20733;BMP180;10527;52.124;5.196;2022-07-25T01:42:44;100871.00;;;34.70
20733;BMP180;10527;52.124;5.196;2022-07-25T01:45:11;100884.00;;;34.70
20733;BMP180;10527;52.124;5.196;2022-07-25T01:47:39;100876.00;;;34.70
20733;BMP180;10527;52.124;5.196;2022-07-25T01:50:07;100869.00;;;34.70
20733;BMP180;10527;52.124;5.196;2022-07-25T01:52:36;100872.00;;;34.70
20733;BMP180;10527;52.124;5.196;2022-07-25T01:55:07;100864.00;;;34.70
20733;BMP180;10527;52.124;5.196;2022-07-25T01:57:34;100856.00;;;34.60
20733;BMP180;10527;52.124;5.196;2022-07-25T02:00:09;100854.00;;;34.60
20733;BMP180;10527;52.124;5.196;2022-07-25T02:02:37;100847.00;;;34.60
20733;BMP180;10527;52.124;5.196;2022-07-25T02:05:04;100832.00;;;34.60
20733;BMP180;10527;52.124;5.196;2022-07-25T02:07:31;100836.00;;;34.60
20733;BMP180;10527;52.124;5.196;2022-07-25T02:09:58;100831.00;;;34.50
20733;BMP180;10527;52.124;5.196;2022-07-25T02:12:24;100832.00;;;34.50
20733;BMP180;10527;52.124;5.196;2022-07-25T02:14:51;100832.00;;;34.50
20733;BMP180;10527;52.124;5.196;2022-07-25T02:17:18;100830.00;;;34.50
20733;BMP180;10527;52.124;5.196;2022-07-25T02:19:45;100835.00;;;34.40
20733;BMP180;10527;52.124;5.196;2022-07-25T02:22:12;100827.00;;;34.40
20733;BMP180;10527;52.124;5.196;2022-07-25T02:24:39;100815.00;;;34.40
20733;BMP180;10527;52.124;5.196;2022-07-25T02:27:06;100815.00;;;34.40
20733;BMP180;10527;52.124;5.196;2022-07-25T02:29:35;100819.00;;;34.40
20733;BMP180;10527;52.124;5.196;2022-07-25T02:32:02;100814.00;;;34.30
20733;BMP180;10527;52.124;5.196;2022-07-25T02:34:29;100804.00;;;34.20
20733;BMP180;10527;52.124;5.196;2022-07-25T02:36:56;100801.00;;;34.20
20733;BMP180;10527;52.124;5.196;2022-07-25T02:39:22;100804.00;;;34.20
20733;BMP180;10527;52.124;5.196;2022-07-25T02:41:50;100796.00;;;34.20
20733;BMP180;10527;52.124;5.196;2022-07-25T02:44:17;100783.00;;;34.10
20733;BMP180;10527;52.124;5.196;2022-07-25T02:46:44;100782.00;;;34.10
20733;BMP180;10527;52.124;5.196;2022-07-25T02:49:12;100777.00;;;34.10
20733;BMP180;10527;52.124;5.196;2022-07-25T02:51:39;100775.00;;;34.10
20733;BMP180;10527;52.124;5.196;2022-07-25T02:54:06;100772.00;;;34.00
20733;BMP180;10527;52.124;5.196;2022-07-25T02:56:32;100759.00;;;34.00
20733;BMP180;10527;52.124;5.196;2022-07-25T02:59:01;100759.00;;;34.00
20733;BMP180;10527;52.124;5.196;2022-07-25T03:01:28;100763.00;;;34.00
20733;BMP180;10527;52.124;5.196;2022-07-25T03:03:55;100767.00;;;33.90
20733;BMP180;10527;52.124;5.196;2022-07-25T03:06:22;100764.00;;;33.90
20733;BMP180;10527;52.124;5.196;2022-07-25T03:08:49;100754.00;;;33.90
20733;BMP180;10527;52.124;5.196;2022-07-25T03:11:16;100754.00;;;33.80
20733;BMP180;10527;52.124;5.196;2022-07-25T03:13:42;100753.00;;;33.80
20733;BMP180;10527;52.124;5.196;2022-07-25T03:16:09;100745.00;;;33.80
20733;BMP180;10527;52.124;5.196;2022-07-25T03:18:37;100741.00;;;33.70
20733;BMP180;10527;52.124;5.196;2022-07-25T03:21:04;100740.00;;;33.70
20733;BMP180;10527;52.124;5.196;2022-07-25T03:23:31;100742.00;;;33.70
20733;BMP180;10527;52.124;5.196;2022-07-25T03:25:58;100746.00;;;33.70
20733;BMP180;10527;52.124;5.196;2022-07-25T03:28:27;100733.00;;;33.70
20733;BMP180;10527;52.124;5.196;2022-07-25T03:30:54;100727.00;;;33.60
20733;BMP180;10527;52.124;5.196;2022-07-25T03:33:21;100734.00;;;33.60
20733;BMP180;10527;52.124;5.196;2022-07-25T03:35:48;100734.00;;;33.60
20733;BMP180;10527;52.124;5.196;2022-07-25T03:38:15;100732.00;;;33.60
20733;BMP180;10527;52.124;5.196;2022-07-25T03:40:42;100742.00;;;33.60
20733;BMP180;10527;52.124;5.196;2022-07-25T03:43:08;100747.00;;;33.60
20733;BMP180;10527;52.124;5.196;2022-07-25T03:45:35;100743.00;;;33.50
20733;BMP180;10527;52.124;5.196;2022-07-25T03:48:02;100737.00;;;33.50
20733;BMP180;10527;52.124;5.196;2022-07-25T03:50:29;100729.00;;;33.50
20733;BMP180;10527;52.124;5.196;2022-07-25T03:52:56;100724.00;;;33.50
20733;BMP180;10527;52.124;5.196;2022-07-25T03:55:23;100729.00;;;33.50
20733;BMP180;10527;52.124;5.196;2022-07-25T03:57:50;100731.00;;;33.50
20733;BMP180;10527;52.124;5.196;2022-07-25T04:00:17;100725.00;;;33.50
20733;BMP180;10527;52.124;5.196;2022-07-25T04:02:44;100721.00;;;33.40
20733;BMP180;10527;52.124;5.196;2022-07-25T04:05:11;100729.00;;;33.50
20733;BMP180;10527;52.124;5.196;2022-07-25T04:07:38;100727.00;;;33.40
20733;BMP180;10527;52.124;5.196;2022-07-25T04:10:06;100740.00;;;33.40
20733;BMP180;10527;52.124;5.196;2022-07-25T04:12:34;100743.00;;;33.40
20733;BMP180;10527;52.124;5.196;2022-07-25T04:15:01;100747.00;;;33.40
20733;BMP180;10527;52.124;5.196;2022-07-25T04:17:27;100744.00;;;33.30
20733;BMP180;10527;52.124;5.196;2022-07-25T04:19:55;100744.00;;;33.30
20733;BMP180;10527;52.124;5.196;2022-07-25T04:22:22;100748.00;;;33.30
20733;BMP180;10527;52.124;5.196;2022-07-25T04:24:49;100749.00;;;33.30
20733;BMP180;10527;52.124;5.196;2022-07-25T04:27:17;100744.00;;;33.30
20733;BMP180;10527;52.124;5.196;2022-07-25T04:29:44;100738.00;;;33.30
20733;BMP180;10527;52.124;5.196;2022-07-25T04:32:11;100740.00;;;33.20
20733;BMP180;10527;52.124;5.196;2022-07-25T04:34:39;100734.00;;;33.20
20733;BMP180;10527;52.124;5.196;2022-07-25T04:37:06;100732.00;;;33.20
20733;BMP180;10527;52.124;5.196;2022-07-25T04:39:32;100731.00;;;33.20
20733;BMP180;10527;52.124;5.196;2022-07-25T04:41:59;100731.00;;;33.20
20733;BMP180;10527;52.124;5.196;2022-07-25T04:44:26;100743.00;;;33.20
20733;BMP180;10527;52.124;5.196;2022-07-25T04:46:53;100727.00;;;33.20
20733;BMP180;10527;52.124;5.196;2022-07-25T04:49:20;100729.00;;;33.20
20733;BMP180;10527;52.124;5.196;2022-07-25T04:51:47;100733.00;;;33.30
20733;BMP180;10527;52.124;5.196;2022-07-25T04:54:14;100736.00;;;33.30
20733;BMP180;10527;52.124;5.196;2022-07-25T04:56:40;100724.00;;;33.30
20733;BMP180;10527;52.124;5.196;2022-07-25T04:59:10;100735.00;;;33.30
20733;BMP180;10527;52.124;5.196;2022-07-25T05:01:36;100726.00;;;33.30
20733;BMP180;10527;52.124;5.196;2022-07-25T05:04:04;100725.00;;;33.30
20733;BMP180;10527;52.124;5.196;2022-07-25T05:06:31;100721.00;;;33.30
20733;BMP180;10527;52.124;5.196;2022-07-25T05:08:58;100727.00;;;33.30
20733;BMP180;10527;52.124;5.196;2022-07-25T05:11:25;100725.00;;;33.30
20733;BMP180;10527;52.124;5.196;2022-07-25T05:13:52;100729.00;;;33.30
20733;BMP180;10527;52.124;5.196;2022-07-25T05:16:21;100718.00;;;33.30
20733;BMP180;10527;52.124;5.196;2022-07-25T05:18:48;100717.00;;;33.30
20733;BMP180;10527;52.124;5.196;2022-07-25T05:21:14;100725.00;;;33.40
20733;BMP180;10527;52.124;5.196;2022-07-25T05:23:41;100722.00;;;33.40
20733;BMP180;10527;52.124;5.196;2022-07-25T05:26:08;100722.00;;;33.40
20733;BMP180;10527;52.124;5.196;2022-07-25T05:28:35;100719.00;;;33.40
20733;BMP180;10527;52.124;5.196;2022-07-25T05:31:02;100720.00;;;33.40
20733;BMP180;10527;52.124;5.196;2022-07-25T05:33:29;100720.00;;;33.40
20733;BMP180;10527;52.124;5.196;2022-07-25T05:35:56;100719.00;;;33.40
20733;BMP180;10527;52.124;5.196;2022-07-25T05:38:22;100726.00;;;33.40
20733;BMP180;10527;52.124;5.196;2022-07-25T05:40:49;100727.00;;;33.40
20733;BMP180;10527;52.124;5.196;2022-07-25T05:43:18;100730.00;;;33.40
20733;BMP180;10527;52.124;5.196;2022-07-25T05:45:46;100725.00;;;33.40
20733;BMP180;10527;52.124;5.196;2022-07-25T05:48:16;100740.00;;;33.40
20733;BMP180;10527;52.124;5.196;2022-07-25T05:50:43;100743.00;;;33.40
20733;BMP180;10527;52.124;5.196;2022-07-25T05:53:11;100742.00;;;33.30
20733;BMP180;10527;52.124;5.196;2022-07-25T05:55:38;100744.00;;;33.30
20733;BMP180;10527;52.124;5.196;2022-07-25T05:58:06;100750.00;;;33.30
20733;BMP180;10527;52.124;5.196;2022-07-25T06:00:36;100753.00;;;33.30
20733;BMP180;10527;52.124;5.196;2022-07-25T06:03:03;100759.00;;;33.20
20733;BMP180;10527;52.124;5.196;2022-07-25T06:05:31;100758.00;;;33.30
20733;BMP180;10527;52.124;5.196;2022-07-25T06:07:58;100753.00;;;33.30
20733;BMP180;10527;52.124;5.196;2022-07-25T06:10:25;100745.00;;;33.20
20733;BMP180;10527;52.124;5.196;2022-07-25T06:12:52;100746.00;;;33.30
20733;BMP180;10527;52.124;5.196;2022-07-25T06:15:19;100731.00;;;33.30
20733;BMP180;10527;52.124;5.196;2022-07-25T06:17:57;100732.00;;;33.30
20733;BMP180;10527;52.124;5.196;2022-07-25T06:20:25;100740.00;;;33.30
20733;BMP180;10527;52.124;5.196;2022-07-25T06:22:52;100736.00;;;33.40
20733;BMP180;10527;52.124;5.196;2022-07-25T06:25:19;100739.00;;;33.40
20733;BMP180;10527;52.124;5.196;2022-07-25T06:27:46;100735.00;;;33.40
20733;BMP180;10527;52.124;5.196;2022-07-25T06:30:13;100732.00;;;33.40
20733;BMP180;10527;52.124;5.196;2022-07-25T06:32:47;100732.00;;;33.40
20733;BMP180;10527;52.124;5.196;2022-07-25T06:35:16;100720.00;;;33.40
20733;BMP180;10527;52.124;5.196;2022-07-25T06:37:43;100730.00;;;33.50
20733;BMP180;10527;52.124;5.196;2022-07-25T06:40:10;100741.00;;;33.50
20733;BMP180;10527;52.124;5.196;2022-07-25T06:42:40;100737.00;;;33.60
20733;BMP180;10527;52.124;5.196;2022-07-25T06:45:09;100749.00;;;33.60
20733;BMP180;10527;52.124;5.196;2022-07-25T06:47:38;100752.00;;;33.60
20733;BMP180;10527;52.124;5.196;2022-07-25T06:50:10;100752.00;;;33.60
20733;BMP180;10527;52.124;5.196;2022-07-25T06:52:39;100752.00;;;33.60
20733;BMP180;10527;52.124;5.196;2022-07-25T06:55:08;100763.00;;;33.50
20733;BMP180;10527;52.124;5.196;2022-07-25T06:57:36;100751.00;;;33.50
20733;BMP180;10527;52.124;5.196;2022-07-25T07:00:10;100764.00;;;33.40
20733;BMP180;10527;52.124;5.196;2022-07-25T07:02:59;100757.00;;;33.40
20733;BMP180;10527;52.124;5.196;2022-07-25T07:05:33;100756.00;;;33.40
20733;BMP180;10527;52.124;5.196;2022-07-25T07:08:00;100751.00;;;33.40
20733;BMP180;10527;52.124;5.196;2022-07-25T07:10:27;100759.00;;;33.30
20733;BMP180;10527;52.124;5.196;2022-07-25T07:13:13;100744.00;;;33.30
20733;BMP180;10527;52.124;5.196;2022-07-25T07:15:46;100750.00;;;33.30
20733;BMP180;10527;52.124;5.196;2022-07-25T07:18:17;100759.00;;;33.20
20733;BMP180;10527;52.124;5.196;2022-07-25T07:20:44;100744.00;;;33.20
20733;BMP180;10527;52.124;5.196;2022-07-25T07:23:12;100745.00;;;33.20
20733;BMP180;10527;52.124;5.196;2022-07-25T07:25:45;100745.00;;;33.30
20733;BMP180;10527;52.124;5.196;2022-07-25T07:28:15;100753.00;;;33.30
20733;BMP180;10527;52.124;5.196;2022-07-25T07:30:44;100756.00;;;33.30
20733;BMP180;10527;52.124;5.196;2022-07-25T07:33:31;100755.00;;;33.30
20733;BMP180;10527;52.124;5.196;2022-07-25T07:36:00;100755.00;;;33.30
20733;BMP180;10527;52.124;5.196;2022-07-25T07:38:27;100751.00;;;33.30
20733;BMP180;10527;52.124;5.196;2022-07-25T07:40:54;100750.00;;;33.20
20733;BMP180;10527;52.124;5.196;2022-07-25T07:43:21;100745.00;;;33.20
20733;BMP180;10527;52.124;5.196;2022-07-25T07:45:56;100742.00;;;33.20
20733;BMP180;10527;52.124;5.196;2022-07-25T07:48:29;100746.00;;;33.20
20733;BMP180;10527;52.124;5.196;2022-07-25T07:50:57;100747.00;;;33.30
20733;BMP180;10527;52.124;5.196;2022-07-25T07:53:24;100739.00;;;33.30
20733;BMP180;10527;52.124;5.196;2022-07-25T07:56:09;100734.00;;;33.30
20733;BMP180;10527;52.124;5.196;2022-07-25T07:58:39;100743.00;;;33.40
20733;BMP180;10527;52.124;5.196;2022-07-25T08:01:07;100744.00;;;33.50
20733;BMP180;10527;52.124;5.196;2022-07-25T08:03:33;100752.00;;;33.50
20733;BMP180;10527;52.124;5.196;2022-07-25T08:06:01;100752.00;;;33.60
20733;BMP180;10527;52.124;5.196;2022-07-25T08:08:28;100750.00;;;33.70
20733;BMP180;10527;52.124;5.196;2022-07-25T08:10:57;100748.00;;;33.70
20733;BMP180;10527;52.124;5.196;2022-07-25T08:13:28;100746.00;;;33.80
20733;BMP180;10527;52.124;5.196;2022-07-25T08:16:00;100758.00;;;33.80
20733;BMP180;10527;52.124;5.196;2022-07-25T08:18:30;100753.00;;;33.80
20733;BMP180;10527;52.124;5.196;2022-07-25T08:21:00;100758.00;;;33.80
20733;BMP180;10527;52.124;5.196;2022-07-25T08:23:29;100754.00;;;33.80
20733;BMP180;10527;52.124;5.196;2022-07-25T08:25:58;100758.00;;;33.90
20733;BMP180;10527;52.124;5.196;2022-07-25T08:28:26;100759.00;;;34.10
20733;BMP180;10527;52.124;5.196;2022-07-25T08:30:53;100759.00;;;34.20
20733;BMP180;10527;52.124;5.196;2022-07-25T08:33:20;100759.00;;;34.40
20733;BMP180;10527;52.124;5.196;2022-07-25T08:35:51;100758.00;;;34.60
20733;BMP180;10527;52.124;5.196;2022-07-25T08:38:24;100761.00;;;34.90
20733;BMP180;10527;52.124;5.196;2022-07-25T08:40:53;100761.00;;;35.10
20733;BMP180;10527;52.124;5.196;2022-07-25T08:43:21;100766.00;;;35.30
20733;BMP180;10527;52.124;5.196;2022-07-25T08:45:53;100769.00;;;35.40
20733;BMP180;10527;52.124;5.196;2022-07-25T08:48:24;100761.00;;;35.50
20733;BMP180;10527;52.124;5.196;2022-07-25T08:50:53;100757.00;;;35.50
20733;BMP180;10527;52.124;5.196;2022-07-25T08:53:24;100756.00;;;35.50
20733;BMP180;10527;52.124;5.196;2022-07-25T08:56:03;100759.00;;;35.50
20733;BMP180;10527;52.124;5.196;2022-07-25T08:58:39;100771.00;;;35.40
20733;BMP180;10527;52.124;5.196;2022-07-25T09:01:05;100784.00;;;35.40
20733;BMP180;10527;52.124;5.196;2022-07-25T09:03:34;100778.00;;;35.30
20733;BMP180;10527;52.124;5.196;2022-07-25T09:06:21;100773.00;;;35.20
20733;BMP180;10527;52.124;5.196;2022-07-25T09:08:59;100765.00;;;35.10
20733;BMP180;10527;52.124;5.196;2022-07-25T09:11:31;100776.00;;;35.00
20733;BMP180;10527;52.124;5.196;2022-07-25T09:14:11;100774.00;;;34.90
20733;BMP180;10527;52.124;5.196;2022-07-25T09:16:43;100785.00;;;34.70
20733;BMP180;10527;52.124;5.196;2022-07-25T09:19:19;100779.00;;;34.60
20733;BMP180;10527;52.124;5.196;2022-07-25T09:22:05;100785.00;;;34.50
20733;BMP180;10527;52.124;5.196;2022-07-25T09:24:35;100792.00;;;34.40
20733;BMP180;10527;52.124;5.196;2022-07-25T09:27:08;100794.00;;;34.30
20733;BMP180;10527;52.124;5.196;2022-07-25T09:29:40;100789.00;;;34.30
20733;BMP180;10527;52.124;5.196;2022-07-25T09:32:21;100784.00;;;34.20
20733;BMP180;10527;52.124;5.196;2022-07-25T09:34:49;100791.00;;;34.20
20733;BMP180;10527;52.124;5.196;2022-07-25T09:37:23;100788.00;;;34.20
20733;BMP180;10527;52.124;5.196;2022-07-25T09:39:51;100785.00;;;34.20
20733;BMP180;10527;52.124;5.196;2022-07-25T09:42:30;100795.00;;;34.30
20733;BMP180;10527;52.124;5.196;2022-07-25T09:45:12;100790.00;;;34.30
20733;BMP180;10527;52.124;5.196;2022-07-25T09:50:27;100806.00;;;34.50
20733;BMP180;10527;52.124;5.196;2022-07-25T09:52:58;100785.00;;;34.60
20733;BMP180;10527;52.124;5.196;2022-07-25T09:55:28;100795.00;;;34.70
20733;BMP180;10527;52.124;5.196;2022-07-25T09:57:56;100795.00;;;34.80
20733;BMP180;10527;52.124;5.196;2022-07-25T10:00:26;100819.00;;;34.80
20733;BMP180;10527;52.124;5.196;2022-07-25T10:05:56;100804.00;;;34.70
20733;BMP180;10527;52.124;5.196;2022-07-25T10:08:26;100812.00;;;34.70
20733;BMP180;10527;52.124;5.196;2022-07-25T10:10:53;100823.00;;;34.60
20733;BMP180;10527;52.124;5.196;2022-07-25T10:13:33;100825.00;;;34.60
20733;BMP180;10527;52.124;5.196;2022-07-25T10:16:01;100822.00;;;34.60
20733;BMP180;10527;52.124;5.196;2022-07-25T10:18:29;100844.00;;;34.50
20733;BMP180;10527;52.124;5.196;2022-07-25T10:21:11;100823.00;;;34.50
20733;BMP180;10527;52.124;5.196;2022-07-25T10:24:07;100845.00;;;34.40
20733;BMP180;10527;52.124;5.196;2022-07-25T10:26:39;100829.00;;;34.40
20733;BMP180;10527;52.124;5.196;2022-07-25T10:29:17;100829.00;;;34.40
20733;BMP180;10527;52.124;5.196;2022-07-25T10:31:44;100830.00;;;34.40
20733;BMP180;10527;52.124;5.196;2022-07-25T10:34:29;100846.00;;;34.40
20733;BMP180;10527;52.124;5.196;2022-07-25T10:37:13;100849.00;;;34.40
20733;BMP180;10527;52.124;5.196;2022-07-25T10:39:43;100845.00;;;34.40
20733;BMP180;10527;52.124;5.196;2022-07-25T10:42:16;100865.00;;;34.30
20733;BMP180;10527;52.124;5.196;2022-07-25T10:44:53;100843.00;;;34.30
20733;BMP180;10527;52.124;5.196;2022-07-25T10:47:26;100859.00;;;34.20
20733;BMP180;10527;52.124;5.196;2022-07-25T10:50:00;100874.00;;;34.20
20733;BMP180;10527;52.124;5.196;2022-07-25T10:52:58;100880.00;;;34.30
20733;BMP180;10527;52.124;5.196;2022-07-25T10:55:28;100879.00;;;34.30
20733;BMP180;10527;52.124;5.196;2022-07-25T10:58:03;100874.00;;;34.40
20733;BMP180;10527;52.124;5.196;2022-07-25T11:00:47;100877.00;;;34.30
20733;BMP180;10527;52.124;5.196;2022-07-25T11:03:14;100873.00;;;34.30
20733;BMP180;10527;52.124;5.196;2022-07-25T11:05:47;100868.00;;;34.30
20733;BMP180;10527;52.124;5.196;2022-07-25T11:08:14;100872.00;;;34.20
20733;BMP180;10527;52.124;5.196;2022-07-25T11:10:51;100880.00;;;34.20
20733;BMP180;10527;52.124;5.196;2022-07-25T11:13:18;100872.00;;;34.10
20733;BMP180;10527;52.124;5.196;2022-07-25T11:15:46;100882.00;;;34.00
20733;BMP180;10527;52.124;5.196;2022-07-25T11:18:13;100878.00;;;33.90
20733;BMP180;10527;52.124;5.196;2022-07-25T11:20:40;100873.00;;;33.80
20733;BMP180;10527;52.124;5.196;2022-07-25T11:23:07;100884.00;;;33.70
20733;BMP180;10527;52.124;5.196;2022-07-25T11:25:33;100879.00;;;33.60
20733;BMP180;10527;52.124;5.196;2022-07-25T11:28:01;100877.00;;;33.60
20733;BMP180;10527;52.124;5.196;2022-07-25T11:30:31;100889.00;;;33.60
20733;BMP180;10527;52.124;5.196;2022-07-25T11:33:00;100888.00;;;33.60
20733;BMP180;10527;52.124;5.196;2022-07-25T11:35:30;100882.00;;;33.60
20733;BMP180;10527;52.124;5.196;2022-07-25T11:38:02;100895.00;;;33.60
20733;BMP180;10527;52.124;5.196;2022-07-25T11:40:31;100893.00;;;33.50
20733;BMP180;10527;52.124;5.196;2022-07-25T11:42:58;100887.00;;;33.50
20733;BMP180;10527;52.124;5.196;2022-07-25T11:45:31;100887.00;;;33.40
20733;BMP180;10527;52.124;5.196;2022-07-25T11:48:09;100893.00;;;33.30
20733;BMP180;10527;52.124;5.196;2022-07-25T11:50:42;100887.00;;;33.30
20733;BMP180;10527;52.124;5.196;2022-07-25T11:53:14;100897.00;;;33.40
20733;BMP180;10527;52.124;5.196;2022-07-25T11:55:43;100893.00;;;33.40
20733;BMP180;10527;52.124;5.196;2022-07-25T11:58:13;100894.00;;;33.40
20733;BMP180;10527;52.124;5.196;2022-07-25T12:00:43;100914.00;;;33.40
20733;BMP180;10527;52.124;5.196;2022-07-25T12:03:19;100903.00;;;33.40
20733;BMP180;10527;52.124;5.196;2022-07-25T12:05:48;100917.00;;;33.30
20733;BMP180;10527;52.124;5.196;2022-07-25T12:08:19;100902.00;;;33.30
20733;BMP180;10527;52.124;5.196;2022-07-25T12:10:47;100915.00;;;33.20
20733;BMP180;10527;52.124;5.196;2022-07-25T12:13:27;100902.00;;;33.20
20733;BMP180;10527;52.124;5.196;2022-07-25T12:15:56;100915.00;;;33.10
20733;BMP180;10527;52.124;5.196;2022-07-25T12:18:24;100910.00;;;33.00
20733;BMP180;10527;52.124;5.196;2022-07-25T12:20:51;100909.00;;;33.00
20733;BMP180;10527;52.124;5.196;2022-07-25T12:23:19;100918.00;;;33.10
20733;BMP180;10527;52.124;5.196;2022-07-25T12:25:49;100922.00;;;33.10
20733;BMP180;10527;52.124;5.196;2022-07-25T12:28:16;100914.00;;;33.20
20733;BMP180;10527;52.124;5.196;2022-07-25T12:30:45;100915.00;;;33.20
20733;BMP180;10527;52.124;5.196;2022-07-25T12:33:17;100908.00;;;33.30
20733;BMP180;10527;52.124;5.196;2022-07-25T12:35:44;100912.00;;;33.30
20733;BMP180;10527;52.124;5.196;2022-07-25T12:38:13;100912.00;;;33.30
20733;BMP180;10527;52.124;5.196;2022-07-25T12:40:40;100906.00;;;33.40
20733;BMP180;10527;52.124;5.196;2022-07-25T12:43:07;100909.00;;;33.50
20733;BMP180;10527;52.124;5.196;2022-07-25T12:45:37;100915.00;;;33.50
20733;BMP180;10527;52.124;5.196;2022-07-25T12:48:04;100926.00;;;33.60
20733;BMP180;10527;52.124;5.196;2022-07-25T12:50:33;100907.00;;;33.60
20733;BMP180;10527;52.124;5.196;2022-07-25T12:53:00;100922.00;;;33.70
20733;BMP180;10527;52.124;5.196;2022-07-25T12:55:27;100925.00;;;33.70
20733;BMP180;10527;52.124;5.196;2022-07-25T12:57:54;100926.00;;;33.80
20733;BMP180;10527;52.124;5.196;2022-07-25T13:00:22;100918.00;;;33.90
20733;BMP180;10527;52.124;5.196;2022-07-25T13:02:52;100934.00;;;34.00
20733;BMP180;10527;52.124;5.196;2022-07-25T13:05:23;100907.00;;;34.10
20733;BMP180;10527;52.124;5.196;2022-07-25T13:07:51;100920.00;;;34.10
20733;BMP180;10527;52.124;5.196;2022-07-25T13:10:19;100919.00;;;34.10
20733;BMP180;10527;52.124;5.196;2022-07-25T13:12:46;100919.00;;;34.10
20733;BMP180;10527;52.124;5.196;2022-07-25T13:15:14;100920.00;;;34.10
20733;BMP180;10527;52.124;5.196;2022-07-25T13:17:41;100913.00;;;34.20
20733;BMP180;10527;52.124;5.196;2022-07-25T13:20:08;100928.00;;;34.30
20733;BMP180;10527;52.124;5.196;2022-07-25T13:22:36;100928.00;;;34.30
20733;BMP180;10527;52.124;5.196;2022-07-25T13:25:04;100915.00;;;34.40
20733;BMP180;10527;52.124;5.196;2022-07-25T13:27:31;100926.00;;;34.40
20733;BMP180;10527;52.124;5.196;2022-07-25T13:29:58;100942.00;;;34.50
20733;BMP180;10527;52.124;5.196;2022-07-25T13:32:25;100928.00;;;34.50
20733;BMP180;10527;52.124;5.196;2022-07-25T13:34:54;100930.00;;;34.50
20733;BMP180;10527;52.124;5.196;2022-07-25T13:37:21;100945.00;;;34.50
20733;BMP180;10527;52.124;5.196;2022-07-25T13:39:48;100932.00;;;34.50
20733;BMP180;10527;52.124;5.196;2022-07-25T13:42:15;100927.00;;;34.50
20733;BMP180;10527;52.124;5.196;2022-07-25T13:44:42;100940.00;;;34.50
20733;BMP180;10527;52.124;5.196;2022-07-25T13:47:10;100941.00;;;34.60
20733;BMP180;10527;52.124;5.196;2022-07-25T13:49:37;100943.00;;;34.60
20733;BMP180;10527;52.124;5.196;2022-07-25T13:52:04;100939.00;;;34.60
20733;BMP180;10527;52.124;5.196;2022-07-25T13:54:32;100936.00;;;34.50
20733;BMP180;10527;52.124;5.196;2022-07-25T13:57:00;100940.00;;;34.50
20733;BMP180;10527;52.124;5.196;2022-07-25T13:59:27;100930.00;;;34.40
20733;BMP180;10527;52.124;5.196;2022-07-25T14:01:54;100944.00;;;34.40
20733;BMP180;10527;52.124;5.196;2022-07-25T14:04:21;100955.00;;;34.30
20733;BMP180;10527;52.124;5.196;2022-07-25T14:06:48;100944.00;;;34.20
20733;BMP180;10527;52.124;5.196;2022-07-25T14:09:19;100952.00;;;34.10
20733;BMP180;10527;52.124;5.196;2022-07-25T14:11:47;100945.00;;;34.10
20733;BMP180;10527;52.124;5.196;2022-07-25T14:14:15;100950.00;;;34.10